createdAt,value
2019-03-01T00:01:23.125Z,11.83
2019-03-01T00:04:01.090Z,11.73
2019-03-01T00:06:45.598Z,11.87
2019-03-01T00:10:13.496Z,11.93
2019-03-01T00:13:26.666Z,10.77
2019-03-01T00:16:11.820Z,10.23
2019-03-01T00:18:54.242Z,10.93
2019-03-01T00:22:00.297Z,10.80
2019-03-01T00:25:00.524Z,10.40
2019-03-01T00:28:04.568Z,10.50
2019-03-01T00:31:07.945Z,10.43
2019-03-01T00:33:54.465Z,10.97
2019-03-01T00:37:11.727Z,10.10
2019-03-01T00:40:05.663Z,11.33
2019-03-01T00:43:07.948Z,10.77
2019-03-01T00:45:38.463Z,10.33
2019-03-01T00:48:09.986Z,12.10
2019-03-01T00:50:40.868Z,10.83
2019-03-01T00:53:11.839Z,11.73
2019-03-01T00:55:42.439Z,12.83
2019-03-01T00:58:13.302Z,11.57
2019-03-01T01:00:46.889Z,10.97
2019-03-01T01:03:17.469Z,11.23
2019-03-01T01:05:48.155Z,11.20
2019-03-01T01:08:19.027Z,11.23
2019-03-01T01:10:51.097Z,11.73
2019-03-01T01:13:21.657Z,10.50
2019-03-01T01:15:52.859Z,10.60
2019-03-01T01:18:23.799Z,10.77
2019-03-01T01:20:54.289Z,10.50
2019-03-01T01:23:24.758Z,10.50
2019-03-01T01:25:55.493Z,10.13
2019-03-01T01:28:29.047Z,11.40
2019-03-01T01:31:02.797Z,10.23
2019-03-01T01:33:33.808Z,10.30
2019-03-01T01:36:06.531Z,9.40
2019-03-01T01:38:41.142Z,8.93
2019-03-01T01:41:17.788Z,10.23
2019-03-01T01:43:49.080Z,9.37
2019-03-01T01:46:19.617Z,9.37
2019-03-01T01:48:50.202Z,9.80
2019-03-01T01:51:21.096Z,10.67
2019-03-01T01:53:51.697Z,10.20
2019-03-01T01:56:25.698Z,10.53
2019-03-01T01:58:56.559Z,10.50
2019-03-01T02:01:27.397Z,11.80
2019-03-01T02:03:58.051Z,12.10
2019-03-01T02:06:29.388Z,11.10
2019-03-01T02:09:00.173Z,12.10
2019-03-01T02:11:31.300Z,11.37
2019-03-01T02:14:01.894Z,11.43
2019-03-01T02:16:32.426Z,11.30
2019-03-01T02:19:03.233Z,11.60
2019-03-01T02:21:33.820Z,13.23
2019-03-01T02:24:04.375Z,11.47
2019-03-01T02:26:34.859Z,12.23
2019-03-01T02:29:05.789Z,13.00
2019-03-01T02:31:36.401Z,11.70
2019-03-01T02:34:06.904Z,12.03
2019-03-01T02:36:37.546Z,12.80
2019-03-01T02:39:08.562Z,13.20
2019-03-01T02:41:39.137Z,12.83
2019-03-01T02:44:09.923Z,12.37
2019-03-01T02:46:40.502Z,11.07
2019-03-01T02:49:11.452Z,11.77
2019-03-01T02:51:41.961Z,9.70
2019-03-01T02:54:12.609Z,9.63
2019-03-01T02:56:43.437Z,8.90
2019-03-01T02:59:13.993Z,10.43
2019-03-01T03:01:44.566Z,8.47
2019-03-01T03:04:15.053Z,8.03
2019-03-01T03:06:57.395Z,8.60
2019-03-01T03:09:27.917Z,8.47
2019-03-01T03:11:58.468Z,7.60
2019-03-01T03:14:28.943Z,7.60
2019-03-01T03:16:59.661Z,7.87
2019-03-01T03:19:30.321Z,7.50
2019-03-01T03:22:02.257Z,8.50
2019-03-01T03:24:35.648Z,7.93
2019-03-01T03:27:06.160Z,8.47
2019-03-01T03:29:36.746Z,9.50
2019-03-01T03:32:07.354Z,8.90
2019-03-01T03:34:37.893Z,8.77
2019-03-01T03:37:08.711Z,10.17
2019-03-01T03:39:40.230Z,8.17
2019-03-01T03:42:10.784Z,9.43
2019-03-01T03:44:41.501Z,10.70
2019-03-01T03:47:11.918Z,8.80
2019-03-01T03:49:45.188Z,10.70
2019-03-01T03:52:16.027Z,9.30
2019-03-01T03:54:46.583Z,9.43
2019-03-01T03:57:17.185Z,9.93
2019-03-01T03:59:49.047Z,10.00
2019-03-01T04:02:22.664Z,9.70
2019-03-01T04:04:54.580Z,9.57
2019-03-01T04:07:25.246Z,9.93
2019-03-01T04:09:55.866Z,10.90
2019-03-01T04:12:26.377Z,12.10
2019-03-01T04:14:56.947Z,10.43
2019-03-01T04:17:27.485Z,9.97
2019-03-01T04:20:01.352Z,9.57
2019-03-01T04:22:32.339Z,9.90
2019-03-01T04:25:03.029Z,10.33
2019-03-01T04:27:33.618Z,10.77
2019-03-01T04:30:04.610Z,9.77
2019-03-01T04:32:36.497Z,9.53
2019-03-01T04:35:07.127Z,10.30
2019-03-01T04:37:38.086Z,9.37
2019-03-01T04:40:10.829Z,9.07
2019-03-01T04:42:41.410Z,8.57
2019-03-01T04:45:15.323Z,8.80
2019-03-01T04:47:45.877Z,9.37
2019-03-01T04:50:19.408Z,10.23
2019-03-01T04:52:52.815Z,10.33
2019-03-01T04:55:25.348Z,11.03
2019-03-01T04:57:56.854Z,9.77
2019-03-01T05:00:27.362Z,9.87
2019-03-01T05:02:58.107Z,10.10
2019-03-01T05:05:29.537Z,11.03
2019-03-01T05:08:00.132Z,10.70
2019-03-01T05:10:31.350Z,9.87
2019-03-01T05:13:01.738Z,11.80
2019-03-01T05:15:33.330Z,11.43
2019-03-01T05:18:03.894Z,11.00
2019-03-01T05:20:34.772Z,12.97
2019-03-01T05:23:06.383Z,12.00
2019-03-01T05:25:36.935Z,12.27
2019-03-01T05:28:07.617Z,12.50
2019-03-01T05:30:39.094Z,12.87
2019-03-01T05:33:09.871Z,12.87
2019-03-01T05:35:40.296Z,13.10
2019-03-01T05:38:27.110Z,12.47
2019-03-01T05:40:57.681Z,11.90
2019-03-01T05:43:28.256Z,11.40
2019-03-01T05:45:59.326Z,12.27
2019-03-01T05:48:30.651Z,13.10
2019-03-01T05:51:01.511Z,11.60
2019-03-01T05:53:32.085Z,11.93
2019-03-01T05:56:02.635Z,12.07
2019-03-01T05:58:48.297Z,12.60
2019-03-01T06:01:43.408Z,11.40
2019-03-01T06:04:17.659Z,12.27
2019-03-01T06:07:13.692Z,14.07
2019-03-01T06:10:24.956Z,11.90
2019-03-01T06:13:21.002Z,10.87
2019-03-01T06:16:10.360Z,10.13
2019-03-01T06:19:15.965Z,12.50
2019-03-01T06:22:27.795Z,11.60
2019-03-01T06:25:43.556Z,11.40
2019-03-01T06:28:40.639Z,11.43
2019-03-01T06:31:41.338Z,10.30
2019-03-01T06:35:06.675Z,10.73
2019-03-01T06:38:17.053Z,11.57
2019-03-01T06:41:39.320Z,8.67
2019-03-01T06:44:34.276Z,7.77
2019-03-01T06:47:33.460Z,7.67
2019-03-01T06:50:13.480Z,7.13
2019-03-01T06:52:47.263Z,6.10
2019-03-01T06:55:39.083Z,5.43
2019-03-01T06:58:32.300Z,5.00
2019-03-01T07:01:14.614Z,6.10
2019-03-01T07:04:13.210Z,6.73
2019-03-01T07:06:46.105Z,7.20
2019-03-01T07:09:18.772Z,6.20
2019-03-01T07:11:49.443Z,6.27
2019-03-01T07:14:22.945Z,6.23
2019-03-01T07:16:53.571Z,5.83
2019-03-01T07:19:24.148Z,5.70
2019-03-01T07:21:54.923Z,5.87
2019-03-01T07:24:25.961Z,5.57
2019-03-01T07:26:56.439Z,5.57
2019-03-01T07:29:30.716Z,6.00
2019-03-01T07:32:03.094Z,5.80
2019-03-01T07:34:33.972Z,7.73
2019-03-01T07:37:04.671Z,6.13
2019-03-01T07:39:35.228Z,5.53
2019-03-01T07:42:05.755Z,6.50
2019-03-01T07:44:36.867Z,5.70
2019-03-01T07:47:08.140Z,6.10
2019-03-01T07:49:41.077Z,5.50
2019-03-01T07:52:14.652Z,5.83
2019-03-01T07:54:49.495Z,4.63
2019-03-01T07:57:20.834Z,4.73
2019-03-01T07:59:53.891Z,5.37
2019-03-01T08:02:24.597Z,4.87
2019-03-01T08:05:04.267Z,5.33
2019-03-01T08:07:36.072Z,5.27
2019-03-01T08:10:08.244Z,4.93
2019-03-01T08:12:42.519Z,3.97
2019-03-01T08:15:13.079Z,4.13
2019-03-01T08:17:43.887Z,4.80
2019-03-01T08:20:15.767Z,4.17
2019-03-01T08:22:49.049Z,5.23
2019-03-01T08:25:23.376Z,4.53
2019-03-01T08:27:51.637Z,3.53
2019-03-01T08:30:28.088Z,3.77
2019-03-01T08:32:59.099Z,3.73
2019-03-01T08:35:48.924Z,3.53
2019-03-01T08:38:38.440Z,2.97
2019-03-01T08:41:12.657Z,3.80
2019-03-01T08:43:44.770Z,3.70
2019-03-01T08:46:20.558Z,3.60
2019-03-01T08:48:51.248Z,3.13
2019-03-01T08:51:22.615Z,3.17
2019-03-01T08:54:03.193Z,3.97
2019-03-01T08:56:36.224Z,3.80
2019-03-01T08:59:14.183Z,4.07
2019-03-01T09:01:45.914Z,5.13
2019-03-01T09:04:21.621Z,4.30
2019-03-01T09:06:53.213Z,4.37
2019-03-01T09:09:24.985Z,3.80
2019-03-01T09:11:56.125Z,4.20
2019-03-01T09:14:27.513Z,3.40
2019-03-01T09:16:58.269Z,3.90
2019-03-01T09:19:36.184Z,4.13
2019-03-01T09:22:07.098Z,3.50
2019-03-01T09:24:37.643Z,4.13
2019-03-01T09:27:08.403Z,4.10
2019-03-01T09:29:41.985Z,3.60
2019-03-01T09:32:15.364Z,4.17
2019-03-01T09:34:48.331Z,4.63
2019-03-01T09:37:19.096Z,4.20
2019-03-01T09:39:50.372Z,3.90
2019-03-01T09:42:23.825Z,4.07
2019-03-01T09:44:54.584Z,3.97
2019-03-01T09:47:25.878Z,3.70
2019-03-01T09:49:59.794Z,4.23
2019-03-01T09:52:28.913Z,5.37
2019-03-01T09:55:05.661Z,3.70
2019-03-01T09:57:38.659Z,3.53
2019-03-01T10:00:13.514Z,4.53
2019-03-01T10:02:49.159Z,3.40
2019-03-01T10:05:22.906Z,3.40
2019-03-01T10:07:54.098Z,2.97
2019-03-01T10:10:28.520Z,1.70
2019-03-01T10:13:08.489Z,1.30
2019-03-01T10:15:39.106Z,1.37
2019-03-01T10:18:24.472Z,1.63
2019-03-01T10:20:55.799Z,1.83
2019-03-01T10:23:26.404Z,1.90
2019-03-01T10:25:59.517Z,2.37
2019-03-01T10:28:33.229Z,2.10
2019-03-01T10:31:03.730Z,2.50
2019-03-01T10:33:34.609Z,2.23
2019-03-01T10:36:08.451Z,2.17
2019-03-01T10:38:42.740Z,1.93
2019-03-01T10:41:22.815Z,2.53
2019-03-01T10:43:59.171Z,2.57
2019-03-01T10:46:30.895Z,2.10
2019-03-01T10:49:01.700Z,2.10
2019-03-01T10:51:34.026Z,2.20
2019-03-01T10:54:04.647Z,1.90
2019-03-01T10:56:42.282Z,2.37
2019-03-01T10:59:12.833Z,2.30
2019-03-01T11:01:43.705Z,2.27
2019-03-01T11:04:33.835Z,2.17
2019-03-01T11:07:04.490Z,2.27
2019-03-01T11:09:36.508Z,2.27
2019-03-01T11:12:10.272Z,2.20
2019-03-01T11:14:40.938Z,2.80
2019-03-01T11:17:12.086Z,2.33
2019-03-01T11:19:43.603Z,2.63
2019-03-01T11:22:15.315Z,2.20
2019-03-01T11:24:46.090Z,2.43
2019-03-01T11:27:19.707Z,2.20
2019-03-01T11:29:53.437Z,2.23
2019-03-01T11:32:24.718Z,2.47
2019-03-01T11:34:55.542Z,3.17
2019-03-01T11:37:26.257Z,2.70
2019-03-01T11:39:59.172Z,2.20
2019-03-01T11:42:30.259Z,1.97
2019-03-01T11:45:03.304Z,2.20
2019-03-01T11:47:34.000Z,2.23
2019-03-01T11:50:10.647Z,2.10
2019-03-01T11:52:41.573Z,1.97
2019-03-01T11:55:17.321Z,2.40
2019-03-01T11:57:49.221Z,2.20
2019-03-01T12:00:20.988Z,2.13
2019-03-01T12:02:56.265Z,2.00
2019-03-01T12:05:26.878Z,2.40
2019-03-01T12:07:57.378Z,2.23
2019-03-01T12:10:29.026Z,2.30
2019-03-01T12:13:02.649Z,1.83
2019-03-01T12:15:33.326Z,1.93
2019-03-01T12:18:08.258Z,1.97
2019-03-01T12:20:39.037Z,2.50
2019-03-01T12:23:26.133Z,2.33
2019-03-01T12:25:57.276Z,2.50
2019-03-01T12:28:30.890Z,2.60
2019-03-01T12:31:02.158Z,3.27
2019-03-01T12:33:37.161Z,3.53
2019-03-01T12:36:09.400Z,4.70
2019-03-01T12:38:47.128Z,4.03
2019-03-01T12:41:20.865Z,4.40
2019-03-01T12:43:56.498Z,3.70
2019-03-01T12:46:29.801Z,4.93
2019-03-01T12:49:00.360Z,4.27
2019-03-01T12:51:31.355Z,4.77
2019-03-01T12:54:02.108Z,4.37
2019-03-01T12:56:35.063Z,4.63
2019-03-01T12:59:05.948Z,4.13
2019-03-01T13:01:38.198Z,4.43
2019-03-01T13:04:10.273Z,4.23
2019-03-01T13:06:58.331Z,4.80
2019-03-01T13:09:28.959Z,4.73
2019-03-01T13:12:01.630Z,4.83
2019-03-01T13:14:32.294Z,4.90
2019-03-01T13:17:06.122Z,5.47
2019-03-01T13:19:38.452Z,5.00
2019-03-01T13:22:09.425Z,5.73
2019-03-01T13:24:40.681Z,5.20
2019-03-01T13:27:17.401Z,5.20
2019-03-01T13:29:49.877Z,5.73
2019-03-01T13:32:23.916Z,6.30
2019-03-01T13:35:03.795Z,4.10
2019-03-01T13:37:35.647Z,3.43
2019-03-01T13:40:07.174Z,3.40
2019-03-01T13:42:39.327Z,3.07
2019-03-01T13:45:15.035Z,3.77
2019-03-01T13:47:47.369Z,3.00
2019-03-01T13:50:21.585Z,3.50
2019-03-01T13:52:58.167Z,3.87
2019-03-01T13:55:28.986Z,4.33
2019-03-01T13:58:02.065Z,4.00
2019-03-01T14:00:45.559Z,3.77
2019-03-01T14:03:16.325Z,4.30
2019-03-01T14:05:47.230Z,5.30
2019-03-01T14:08:18.576Z,4.53
2019-03-01T14:10:58.712Z,4.03
2019-03-01T14:13:29.964Z,4.03
2019-03-01T14:16:04.086Z,3.80
2019-03-01T14:18:36.772Z,3.73
2019-03-01T14:21:13.090Z,3.90
2019-03-01T14:23:44.234Z,3.73
2019-03-01T14:26:18.501Z,4.00
2019-03-01T14:28:49.138Z,3.87
2019-03-01T14:31:21.622Z,4.77
2019-03-01T14:33:52.276Z,4.97
2019-03-01T14:36:24.163Z,6.13
2019-03-01T14:39:08.085Z,4.27
2019-03-01T14:41:43.076Z,3.97
2019-03-01T14:44:14.227Z,4.13
2019-03-01T14:46:46.786Z,3.50
2019-03-01T14:49:24.514Z,4.23
2019-03-01T14:51:57.416Z,4.17
2019-03-01T14:54:28.275Z,4.80
2019-03-01T14:57:14.259Z,4.23
2019-03-01T15:00:14.371Z,4.10
2019-03-01T15:03:30.791Z,5.80
2019-03-01T15:06:08.563Z,6.47
2019-03-01T15:08:48.267Z,4.40
2019-03-01T15:11:24.579Z,3.50
2019-03-01T15:13:58.592Z,2.90
2019-03-01T15:16:28.265Z,3.03
2019-03-01T15:19:01.261Z,3.00
2019-03-01T15:21:38.384Z,3.10
2019-03-01T15:24:14.842Z,3.73
2019-03-01T15:26:46.219Z,6.47
2019-03-01T15:29:19.822Z,3.97
2019-03-01T15:31:54.824Z,2.63
2019-03-01T15:34:24.050Z,3.63
2019-03-01T15:36:56.814Z,3.67
2019-03-01T15:39:29.078Z,3.10
2019-03-01T15:42:10.089Z,3.07
2019-03-01T15:44:40.708Z,2.43
2019-03-01T15:47:11.223Z,3.37
2019-03-01T15:49:48.030Z,3.43
2019-03-01T15:52:22.801Z,2.70
2019-03-01T15:54:50.552Z,3.27
2019-03-01T15:57:22.679Z,3.17
2019-03-01T16:00:05.281Z,4.00
2019-03-01T16:02:40.298Z,2.90
2019-03-01T16:05:19.537Z,3.30
2019-03-01T16:07:49.011Z,3.37
2019-03-01T16:12:39.829Z,3.43
2019-03-01T16:15:12.357Z,4.03
2019-03-01T16:17:44.741Z,4.13
2019-03-01T16:20:16.445Z,3.57
2019-03-01T16:22:47.134Z,3.83
2019-03-01T16:25:20.617Z,3.97
2019-03-01T16:27:55.135Z,3.97
2019-03-01T16:30:26.269Z,3.53
2019-03-01T16:32:57.077Z,5.30
2019-03-01T16:35:28.033Z,6.07
2019-03-01T16:38:03.641Z,5.27
2019-03-01T16:40:42.382Z,5.03
2019-03-01T16:43:13.006Z,4.80
2019-03-01T16:45:48.100Z,5.03
2019-03-01T16:48:20.557Z,4.97
2019-03-01T16:50:52.044Z,4.63
2019-03-01T16:53:25.683Z,4.70
2019-03-01T16:55:59.326Z,4.20
2019-03-01T16:58:30.691Z,5.40
2019-03-01T17:01:19.028Z,5.07
2019-03-01T17:04:07.037Z,5.23
2019-03-01T17:06:49.302Z,5.63
2019-03-01T17:09:23.131Z,5.07
2019-03-01T17:11:56.091Z,5.73
2019-03-01T17:14:27.639Z,5.10
2019-03-01T17:17:03.183Z,6.03
2019-03-01T17:19:37.992Z,6.50
2019-03-01T17:22:08.939Z,6.03
2019-03-01T17:24:41.907Z,5.77
2019-03-01T17:27:16.554Z,5.47
2019-03-01T17:29:49.230Z,6.57
2019-03-01T17:32:27.661Z,10.77
2019-03-01T17:35:07.004Z,11.73
2019-03-01T17:37:41.301Z,11.57
2019-03-01T17:40:12.564Z,13.37
2019-03-01T17:42:44.798Z,12.80
2019-03-01T17:45:20.882Z,14.47
2019-03-01T17:47:50.119Z,14.97
2019-03-01T17:50:22.511Z,14.53
2019-03-01T17:52:57.342Z,15.60
2019-03-01T17:55:28.826Z,16.30
2019-03-01T17:58:05.339Z,16.57
2019-03-01T18:00:39.392Z,16.90
2019-03-01T18:03:12.167Z,16.77
2019-03-01T18:05:48.792Z,17.17
2019-03-01T18:08:19.812Z,15.50
2019-03-01T18:10:52.146Z,17.27
2019-03-01T18:13:25.409Z,17.37
2019-03-01T18:15:56.713Z,16.50
2019-03-01T18:18:29.809Z,15.70
2019-03-01T18:21:10.154Z,16.87
2019-03-01T18:23:41.423Z,17.63
2019-03-01T18:26:14.110Z,18.23
2019-03-01T18:28:45.007Z,17.93
2019-03-01T18:31:21.714Z,17.27
2019-03-01T18:33:57.328Z,17.83
2019-03-01T18:36:35.559Z,19.37
2019-03-01T18:39:20.598Z,19.30
2019-03-01T18:41:54.649Z,19.87
2019-03-01T18:44:32.157Z,20.30
2019-03-01T18:47:03.298Z,20.50
2019-03-01T18:49:34.312Z,20.20
2019-03-01T18:52:09.436Z,20.53
2019-03-01T18:54:42.981Z,20.77
2019-03-01T18:57:15.493Z,20.50
2019-03-01T18:59:46.571Z,20.53
2019-03-01T19:02:17.631Z,20.83
2019-03-01T19:04:51.359Z,20.57
2019-03-01T19:07:27.488Z,20.43
2019-03-01T19:09:59.314Z,20.80
2019-03-01T19:12:33.140Z,22.03
2019-03-01T19:15:12.158Z,19.93
2019-03-01T19:17:46.014Z,21.13
2019-03-01T19:20:19.705Z,23.17
2019-03-01T19:22:57.952Z,24.13
2019-03-01T19:25:30.339Z,26.27
2019-03-01T19:28:04.607Z,27.90
2019-03-01T19:30:40.901Z,27.40
2019-03-01T19:33:20.384Z,29.30
2019-03-01T19:35:53.111Z,29.93
2019-03-01T19:38:27.994Z,31.73
2019-03-01T19:41:04.590Z,30.07
2019-03-01T19:43:45.701Z,31.67
2019-03-01T19:46:18.129Z,32.37
2019-03-01T19:48:57.745Z,31.47
2019-03-01T19:51:28.617Z,34.10
2019-03-01T19:54:06.107Z,35.03
2019-03-01T19:56:38.614Z,33.00
2019-03-01T19:59:09.785Z,34.00
2019-03-01T20:05:52.379Z,33.63
2019-03-01T20:08:33.667Z,34.13
2019-03-01T20:11:12.340Z,35.93
2019-03-01T20:13:46.811Z,36.13
2019-03-01T20:16:19.747Z,37.07
2019-03-01T20:18:52.816Z,36.23
2019-03-01T20:21:30.033Z,36.37
2019-03-01T20:24:06.775Z,37.50
2019-03-01T20:26:37.702Z,38.67
2019-03-01T20:29:16.511Z,34.97
2019-03-01T20:32:07.027Z,36.73
2019-03-01T20:34:41.690Z,36.03
2019-03-01T20:37:18.411Z,34.77
2019-03-01T20:39:56.189Z,34.97
2019-03-01T20:42:37.530Z,32.83
2019-03-01T20:45:29.792Z,34.50
2019-03-01T20:48:04.292Z,34.10
2019-03-01T20:50:40.256Z,34.33
2019-03-01T20:53:13.383Z,33.50
2019-03-01T20:55:54.679Z,32.57
2019-03-01T20:58:25.992Z,31.87
2019-03-01T21:01:01.977Z,30.87
2019-03-01T21:03:33.498Z,31.17
2019-03-01T21:06:05.435Z,32.50
2019-03-01T21:08:47.714Z,31.93
2019-03-01T21:11:27.510Z,31.43
2019-03-01T21:14:13.243Z,30.73
2019-03-01T21:16:45.846Z,30.60
2019-03-01T21:19:16.861Z,27.63
2019-03-01T21:22:01.597Z,29.53
2019-03-01T21:24:32.468Z,28.77
2019-03-01T21:27:09.192Z,28.03
2019-03-01T21:29:41.139Z,26.57
2019-03-01T21:32:17.287Z,24.53
2019-03-01T21:34:48.577Z,24.93
2019-03-01T21:37:22.604Z,23.63
2019-03-01T21:39:58.882Z,24.47
2019-03-01T21:42:30.951Z,22.17
2019-03-01T21:45:02.131Z,21.67
2019-03-01T21:47:37.862Z,20.87
2019-03-01T21:50:08.862Z,21.90
2019-03-01T21:52:44.085Z,20.93
2019-03-01T21:55:18.630Z,20.60
2019-03-01T21:57:50.250Z,20.83
2019-03-01T22:00:25.328Z,22.23
2019-03-01T22:03:01.981Z,21.53
2019-03-01T22:05:36.459Z,20.17
2019-03-01T22:08:09.589Z,20.27
2019-03-01T22:10:41.297Z,19.27
2019-03-01T22:13:13.725Z,21.33
2019-03-01T22:15:46.318Z,21.23
2019-03-01T22:18:20.399Z,20.37
2019-03-01T22:20:52.810Z,19.23
2019-03-01T22:23:23.608Z,19.57
2019-03-01T22:25:55.605Z,19.87
2019-03-01T22:28:32.720Z,17.50
2019-03-01T22:31:02.674Z,17.73
2019-03-01T22:33:40.000Z,17.30
2019-03-01T22:36:18.248Z,18.33
2019-03-01T22:38:51.832Z,18.40
2019-03-01T22:41:23.287Z,17.50
2019-03-01T22:43:54.153Z,16.93
2019-03-01T22:46:28.647Z,16.83
2019-03-01T22:49:03.644Z,18.13
2019-03-01T22:51:38.655Z,16.77
2019-03-01T22:54:09.557Z,18.67
2019-03-01T22:56:44.713Z,18.13
2019-03-01T22:59:16.876Z,17.60
2019-03-01T23:01:52.899Z,17.10
2019-03-01T23:04:26.674Z,17.47
2019-03-01T23:07:00.191Z,17.17
2019-03-01T23:09:31.110Z,18.30
2019-03-01T23:12:04.680Z,17.60
2019-03-01T23:14:35.869Z,16.53
2019-03-01T23:17:07.478Z,19.03
2019-03-01T23:19:39.215Z,17.70
2019-03-01T23:22:11.002Z,19.30
2019-03-01T23:24:44.042Z,17.60
2019-03-01T23:27:16.417Z,17.97
2019-03-01T23:29:50.974Z,18.43
2019-03-01T23:32:20.248Z,17.33
2019-03-01T23:34:52.093Z,16.23
2019-03-01T23:37:23.428Z,17.73
2019-03-01T23:39:57.148Z,17.53
2019-03-01T23:42:27.091Z,17.83
2019-03-01T23:44:58.637Z,17.27
2019-03-01T23:47:38.391Z,17.20
2019-03-01T23:50:08.220Z,17.87
2019-03-01T23:52:40.873Z,19.53
2019-03-01T23:55:11.786Z,19.10
2019-03-01T23:57:42.991Z,19.87
